createdAt,value
2022-12-14T00:01:23.329Z,-4.10
2022-12-14T00:02:45.476Z,-4.10
2022-12-14T00:04:07.748Z,-4.10
2022-12-14T00:05:29.812Z,-4.10
2022-12-14T00:06:52.521Z,-4.00
2022-12-14T00:08:15.980Z,-4.00
2022-12-14T00:09:38.031Z,-4.00
2022-12-14T00:11:00.140Z,-4.10
2022-12-14T00:12:22.221Z,-4.00
2022-12-14T00:13:44.448Z,-4.10
2022-12-14T00:15:11.307Z,-4.10
2022-12-14T00:16:35.186Z,-4.10
2022-12-14T00:17:57.311Z,-4.10
2022-12-14T00:19:19.373Z,-4.10
2022-12-14T00:20:41.638Z,-4.10
2022-12-14T00:22:03.728Z,-4.10
2022-12-14T00:23:25.792Z,-4.10
2022-12-14T00:24:47.875Z,-4.10
2022-12-14T00:26:36.213Z,-4.10
2022-12-14T00:27:58.725Z,-4.20
2022-12-14T00:29:20.789Z,-4.10
2022-12-14T00:30:42.886Z,-4.20
2022-12-14T00:32:05.942Z,-4.20
2022-12-14T00:33:28.071Z,-4.20
2022-12-14T00:34:50.177Z,-4.20
2022-12-14T00:36:13.044Z,-4.20
2022-12-14T00:37:35.691Z,-4.20
2022-12-14T00:38:57.875Z,-4.20
2022-12-14T00:40:19.937Z,-4.20
2022-12-14T00:41:42.071Z,-4.20
2022-12-14T00:43:04.334Z,-4.20
2022-12-14T00:44:26.380Z,-4.20
2022-12-14T00:45:48.690Z,-4.20
2022-12-14T00:47:10.770Z,-4.20
2022-12-14T00:48:33.515Z,-4.20
2022-12-14T00:49:55.548Z,-4.20
2022-12-14T00:51:18.399Z,-4.20
2022-12-14T00:52:40.428Z,-4.20
2022-12-14T00:54:02.438Z,-4.20
2022-12-14T00:55:24.465Z,-4.20
2022-12-14T00:56:46.487Z,-4.30
2022-12-14T00:58:10.456Z,-4.30
2022-12-14T00:59:32.477Z,-4.30
2022-12-14T01:01:02.452Z,-4.30
2022-12-14T01:02:24.635Z,-4.40
2022-12-14T01:03:47.032Z,-4.40
2022-12-14T01:05:09.480Z,-4.40
2022-12-14T01:06:31.509Z,-4.40
2022-12-14T01:07:53.511Z,-4.40
2022-12-14T01:09:16.567Z,-4.40
2022-12-14T01:10:40.387Z,-4.40
2022-12-14T01:12:02.422Z,-4.40
2022-12-14T01:13:24.706Z,-4.40
2022-12-14T01:14:48.759Z,-4.40
2022-12-14T01:16:14.935Z,-4.50
2022-12-14T01:17:37.014Z,-4.50
2022-12-14T01:19:00.303Z,-4.50
2022-12-14T01:20:22.393Z,-4.50
2022-12-14T01:21:44.689Z,-4.50
2022-12-14T01:23:07.055Z,-4.50
2022-12-14T01:24:29.417Z,-4.50
2022-12-14T01:25:51.421Z,-4.50
2022-12-14T01:27:13.582Z,-4.50
2022-12-14T01:28:36.187Z,-4.50
2022-12-14T01:29:58.214Z,-4.50
2022-12-14T01:31:22.933Z,-4.50
2022-12-14T01:32:46.060Z,-4.50
2022-12-14T01:34:08.317Z,-4.60
2022-12-14T01:35:30.343Z,-4.60
2022-12-14T01:36:52.395Z,-4.60
2022-12-14T01:38:14.405Z,-4.60
2022-12-14T01:39:36.462Z,-4.60
2022-12-14T01:41:00.076Z,-4.60
2022-12-14T01:42:22.372Z,-4.60
2022-12-14T01:43:50.188Z,-4.60
2022-12-14T01:45:19.389Z,-4.60
2022-12-14T01:46:50.060Z,-4.60
2022-12-14T01:48:14.014Z,-4.60
2022-12-14T01:49:49.045Z,-4.60
2022-12-14T01:51:11.133Z,-4.60
2022-12-14T01:52:40.859Z,-4.60
2022-12-14T01:54:07.286Z,-4.60
2022-12-14T01:55:56.354Z,-4.60
2022-12-14T01:57:25.789Z,-4.60
2022-12-14T01:58:47.841Z,-4.70
2022-12-14T02:00:13.191Z,-4.60
2022-12-14T02:01:35.705Z,-4.70
2022-12-14T02:03:09.215Z,-4.70
2022-12-14T02:04:33.600Z,-4.70
2022-12-14T02:06:02.120Z,-4.70
2022-12-14T02:07:26.471Z,-4.70
2022-12-14T02:08:52.370Z,-4.70
2022-12-14T02:10:14.440Z,-4.80
2022-12-14T02:12:00.514Z,-4.80
2022-12-14T02:13:38.705Z,-4.70
2022-12-14T02:15:02.443Z,-4.70
2022-12-14T02:16:24.607Z,-4.80
2022-12-14T02:17:48.262Z,-4.80
2022-12-14T02:19:10.311Z,-4.80
2022-12-14T02:20:41.200Z,-4.80
2022-12-14T02:22:33.382Z,-4.80
2022-12-14T02:24:14.220Z,-4.80
2022-12-14T02:25:54.736Z,-4.80
2022-12-14T02:28:06.246Z,-4.80
2022-12-14T02:29:49.965Z,-4.80
2022-12-14T02:31:33.712Z,-4.90
2022-12-14T02:33:06.422Z,-4.90
2022-12-14T02:35:05.453Z,-4.90
2022-12-14T02:36:37.533Z,-4.90
2022-12-14T02:38:27.230Z,-4.90
2022-12-14T02:40:13.120Z,-4.90
2022-12-14T02:41:54.493Z,-4.90
2022-12-14T02:43:29.100Z,-4.90
2022-12-14T02:45:14.052Z,-4.90
2022-12-14T02:46:45.066Z,-4.90
2022-12-14T02:48:26.506Z,-4.90
2022-12-14T02:50:02.475Z,-5.00
2022-12-14T02:51:50.183Z,-5.00
2022-12-14T02:53:42.291Z,-5.00
2022-12-14T02:55:12.207Z,-5.00
2022-12-14T02:56:40.026Z,-5.00
2022-12-14T02:58:17.280Z,-5.00
2022-12-14T02:59:40.681Z,-5.10
2022-12-14T03:01:03.891Z,-5.10
2022-12-14T03:02:27.127Z,-5.10
2022-12-14T03:03:49.641Z,-5.10
2022-12-14T03:05:11.939Z,-5.10
2022-12-14T03:06:34.064Z,-5.00
2022-12-14T03:07:59.012Z,-5.00
2022-12-14T03:09:21.065Z,-5.00
2022-12-14T03:10:57.342Z,-5.00
2022-12-14T03:12:20.945Z,-5.00
2022-12-14T03:13:51.647Z,-5.00
2022-12-14T03:15:16.423Z,-5.00
2022-12-14T03:16:46.404Z,-5.00
2022-12-14T03:18:12.354Z,-5.00
2022-12-14T03:19:52.626Z,-5.00
2022-12-14T03:21:19.229Z,-5.00
2022-12-14T03:22:52.032Z,-5.10
2022-12-14T03:24:24.070Z,-5.10
2022-12-14T03:26:13.060Z,-5.10
2022-12-14T03:27:40.475Z,-5.20
2022-12-14T03:29:12.917Z,-5.20
2022-12-14T03:30:59.284Z,-5.10
2022-12-14T03:32:24.071Z,-5.10
2022-12-14T03:33:48.975Z,-5.20
2022-12-14T03:35:23.541Z,-5.20
2022-12-14T03:37:02.760Z,-5.20
2022-12-14T03:38:33.605Z,-5.20
2022-12-14T03:39:56.137Z,-5.20
2022-12-14T03:41:48.990Z,-5.20
2022-12-14T03:43:18.343Z,-5.20
2022-12-14T03:44:54.834Z,-5.20
2022-12-14T03:46:42.921Z,-5.20
2022-12-14T03:48:58.664Z,-5.20
2022-12-14T03:50:52.427Z,-5.20
2022-12-14T03:52:26.638Z,-5.20
2022-12-14T03:54:26.829Z,-5.20
2022-12-14T03:55:54.807Z,-5.20
2022-12-14T03:57:19.597Z,-5.20
2022-12-14T03:59:00.447Z,-5.20
2022-12-14T04:00:24.750Z,-5.20
2022-12-14T04:01:49.891Z,-5.20
2022-12-14T04:03:38.056Z,-5.20
2022-12-14T04:05:07.880Z,-5.20
2022-12-14T04:06:38.710Z,-5.20
2022-12-14T04:08:06.502Z,-5.10
2022-12-14T04:09:52.043Z,-5.10
2022-12-14T04:11:35.297Z,-5.10
2022-12-14T04:13:22.739Z,-5.10
2022-12-14T04:15:09.971Z,-5.20
2022-12-14T04:16:57.016Z,-5.20
2022-12-14T04:18:44.088Z,-5.10
2022-12-14T04:20:26.157Z,-5.20
2022-12-14T04:21:58.560Z,-5.20
2022-12-14T04:23:48.541Z,-5.20
2022-12-14T04:25:38.082Z,-5.20
2022-12-14T04:27:05.425Z,-5.20
2022-12-14T04:28:53.395Z,-5.20
2022-12-14T04:30:15.863Z,-5.20
2022-12-14T04:31:42.478Z,-5.20
2022-12-14T04:33:30.797Z,-5.10
2022-12-14T04:35:19.154Z,-5.10
2022-12-14T04:36:44.765Z,-5.20
2022-12-14T04:38:20.338Z,-5.20
2022-12-14T04:39:49.651Z,-5.20
2022-12-14T04:41:15.343Z,-5.20
2022-12-14T04:42:47.427Z,-5.20
2022-12-14T04:44:32.318Z,-5.20
2022-12-14T04:46:08.031Z,-5.20
2022-12-14T04:47:34.954Z,-5.20
2022-12-14T04:49:13.132Z,-5.20
2022-12-14T04:50:42.583Z,-5.20
2022-12-14T04:52:28.513Z,-5.30
2022-12-14T04:54:07.071Z,-5.30
2022-12-14T04:55:42.770Z,-5.30
2022-12-14T04:57:23.958Z,-5.30
2022-12-14T04:58:46.218Z,-5.30
2022-12-14T05:00:10.166Z,-5.30
2022-12-14T05:01:49.068Z,-5.40
2022-12-14T05:03:21.981Z,-5.40
2022-12-14T05:05:16.602Z,-5.40
2022-12-14T05:07:10.122Z,-5.40
2022-12-14T05:08:40.270Z,-5.40
2022-12-14T05:10:16.553Z,-5.40
2022-12-14T05:11:53.962Z,-5.40
2022-12-14T05:13:26.293Z,-5.50
2022-12-14T05:15:10.158Z,-5.50
2022-12-14T05:16:32.418Z,-5.50
2022-12-14T05:17:54.928Z,-5.50
2022-12-14T05:19:17.144Z,-5.50
2022-12-14T05:20:39.211Z,-5.50
2022-12-14T05:22:06.318Z,-5.50
2022-12-14T05:23:28.760Z,-5.50
2022-12-14T05:24:51.263Z,-5.50
2022-12-14T05:26:13.273Z,-5.50
2022-12-14T05:27:35.324Z,-5.50
2022-12-14T05:28:57.476Z,-5.50
2022-12-14T05:30:19.705Z,-5.60
2022-12-14T05:31:41.854Z,-5.60
2022-12-14T05:33:19.883Z,-5.60
2022-12-14T05:34:42.029Z,-5.60
2022-12-14T05:36:04.226Z,-5.60
2022-12-14T05:37:26.258Z,-5.60
2022-12-14T05:38:48.335Z,-5.60
2022-12-14T05:40:11.168Z,-5.70
2022-12-14T05:41:33.182Z,-5.70
2022-12-14T05:43:05.324Z,-5.70
2022-12-14T05:44:27.377Z,-5.70
2022-12-14T05:45:49.476Z,-5.70
2022-12-14T05:47:11.725Z,-5.70
2022-12-14T05:48:35.123Z,-5.70
2022-12-14T05:49:57.240Z,-5.70
2022-12-14T05:51:19.296Z,-5.80
2022-12-14T05:52:41.368Z,-5.70
2022-12-14T05:54:03.705Z,-5.70
2022-12-14T05:55:25.754Z,-5.70
2022-12-14T05:56:47.777Z,-5.70
2022-12-14T05:58:09.812Z,-5.70
2022-12-14T05:59:31.854Z,-5.70
2022-12-14T06:00:53.886Z,-5.70
2022-12-14T06:02:16.013Z,-5.70
2022-12-14T06:03:38.429Z,-5.70
2022-12-14T06:05:00.576Z,-5.70
2022-12-14T06:06:22.642Z,-5.70
2022-12-14T06:07:44.658Z,-5.80
2022-12-14T06:09:08.534Z,-5.80
2022-12-14T06:10:30.595Z,-5.70
2022-12-14T06:11:52.687Z,-5.70
2022-12-14T06:13:14.746Z,-5.70
2022-12-14T06:14:36.778Z,-5.70
2022-12-14T06:16:20.009Z,-5.70
2022-12-14T06:17:46.181Z,-5.70
2022-12-14T06:19:08.744Z,-5.70
2022-12-14T06:20:30.750Z,-5.70
2022-12-14T06:21:52.787Z,-5.70
2022-12-14T06:23:14.808Z,-5.70
2022-12-14T06:24:36.814Z,-5.70
2022-12-14T06:25:58.838Z,-5.70
2022-12-14T06:27:20.896Z,-5.70
2022-12-14T06:28:43.103Z,-5.70
2022-12-14T06:30:05.710Z,-5.70
2022-12-14T06:31:30.451Z,-5.70
2022-12-14T06:32:52.568Z,-5.70
2022-12-14T06:34:15.116Z,-5.70
2022-12-14T06:35:37.142Z,-5.70
2022-12-14T06:36:59.244Z,-5.70
2022-12-14T06:38:21.953Z,-5.70
2022-12-14T06:39:45.060Z,-5.80
2022-12-14T06:41:14.734Z,-5.80
2022-12-14T06:42:37.080Z,-5.80
2022-12-14T06:44:07.267Z,-5.80
2022-12-14T06:45:29.724Z,-5.80
2022-12-14T06:46:51.858Z,-5.80
2022-12-14T06:48:13.917Z,-5.80
2022-12-14T06:49:35.928Z,-5.80
2022-12-14T06:51:02.596Z,-5.80
2022-12-14T06:52:26.939Z,-5.80
2022-12-14T06:53:57.358Z,-5.80
2022-12-14T06:55:19.414Z,-5.80
2022-12-14T06:56:43.016Z,-5.80
2022-12-14T06:58:05.085Z,-5.80
2022-12-14T06:59:27.253Z,-5.80
2022-12-14T07:00:49.274Z,-5.80
2022-12-14T07:02:11.395Z,-5.80
2022-12-14T07:03:34.333Z,-5.80
2022-12-14T07:04:56.438Z,-5.80
2022-12-14T07:06:18.481Z,-5.80
2022-12-14T07:07:41.551Z,-5.80
2022-12-14T07:09:04.889Z,-5.80
2022-12-14T07:10:26.965Z,-5.80
2022-12-14T07:11:51.383Z,-5.90
2022-12-14T07:13:13.456Z,-5.90
2022-12-14T07:14:35.573Z,-5.90
2022-12-14T07:15:59.146Z,-5.80
2022-12-14T07:17:21.890Z,-5.80
2022-12-14T07:18:44.032Z,-5.80
2022-12-14T07:20:07.339Z,-5.90
2022-12-14T07:21:29.413Z,-5.90
2022-12-14T07:22:51.501Z,-5.90
2022-12-14T07:24:13.956Z,-5.80
2022-12-14T07:25:36.052Z,-5.80
2022-12-14T07:26:58.145Z,-5.80
2022-12-14T07:28:20.570Z,-5.80
2022-12-14T07:29:42.617Z,-5.70
2022-12-14T07:31:08.148Z,-5.70
2022-12-14T07:32:30.423Z,-5.70
2022-12-14T07:33:54.322Z,-5.70
2022-12-14T07:35:17.008Z,-5.70
2022-12-14T07:36:39.344Z,-5.70
2022-12-14T07:38:01.380Z,-5.70
2022-12-14T07:39:23.433Z,-5.70
2022-12-14T07:40:45.479Z,-5.70
2022-12-14T07:42:07.892Z,-5.70
2022-12-14T07:43:30.421Z,-5.60
2022-12-14T07:44:52.629Z,-5.60
2022-12-14T07:46:20.026Z,-5.60
2022-12-14T07:47:42.800Z,-5.60
2022-12-14T07:49:04.868Z,-5.60
2022-12-14T07:50:27.073Z,-5.60
2022-12-14T07:51:49.144Z,-5.60
2022-12-14T07:53:11.227Z,-5.60
2022-12-14T07:54:33.388Z,-5.60
2022-12-14T07:55:55.459Z,-5.60
2022-12-14T07:57:17.521Z,-5.60
2022-12-14T07:58:40.120Z,-5.60
2022-12-14T08:00:02.327Z,-5.60
2022-12-14T08:01:27.694Z,-5.60
2022-12-14T08:02:49.937Z,-5.60
2022-12-14T08:04:15.633Z,-5.50
2022-12-14T08:05:40.578Z,-5.50
2022-12-14T08:07:02.597Z,-5.50
2022-12-14T08:08:24.642Z,-5.50
2022-12-14T08:09:47.548Z,-5.50
2022-12-14T08:11:11.045Z,-5.50
2022-12-14T08:12:33.129Z,-5.50
2022-12-14T08:13:55.113Z,-5.40
2022-12-14T08:15:17.176Z,-5.40
2022-12-14T08:16:39.512Z,-5.40
2022-12-14T08:18:01.517Z,-5.40
2022-12-14T08:19:23.509Z,-5.40
2022-12-14T08:20:53.114Z,-5.40
2022-12-14T08:22:15.489Z,-5.30
2022-12-14T08:23:37.752Z,-5.30
2022-12-14T08:24:59.781Z,-5.30
2022-12-14T08:26:23.679Z,-5.20
2022-12-14T08:27:46.268Z,-5.20
2022-12-14T08:29:09.235Z,-5.20
2022-12-14T08:30:31.228Z,-5.20
2022-12-14T08:31:55.984Z,-5.10
2022-12-14T08:33:19.260Z,-5.10
2022-12-14T08:34:41.327Z,-5.10
2022-12-14T08:36:15.281Z,-5.00
2022-12-14T08:37:37.321Z,-5.00
2022-12-14T08:39:01.355Z,-5.00
2022-12-14T08:40:23.389Z,-4.90
2022-12-14T08:41:46.254Z,-4.90
2022-12-14T08:43:09.497Z,-4.80
2022-12-14T08:44:31.522Z,-4.80
2022-12-14T08:45:55.665Z,-4.70
2022-12-14T08:47:17.681Z,-4.70
2022-12-14T08:48:39.687Z,-4.70
2022-12-14T08:50:01.661Z,-4.60
2022-12-14T08:51:26.017Z,-4.60
2022-12-14T08:52:48.530Z,-4.60
2022-12-14T08:54:11.202Z,-4.60
2022-12-14T08:55:38.232Z,-4.60
2022-12-14T08:57:01.009Z,-4.60
2022-12-14T08:58:23.025Z,-4.60
2022-12-14T09:00:01.397Z,-4.50
2022-12-14T09:01:32.675Z,-4.40
2022-12-14T09:02:55.773Z,-4.40
2022-12-14T09:04:17.821Z,-4.40
2022-12-14T09:05:39.961Z,-4.30
2022-12-14T09:07:02.314Z,-4.30
2022-12-14T09:08:24.396Z,-4.30
2022-12-14T09:09:46.420Z,-4.30
2022-12-14T09:11:12.651Z,-4.20
2022-12-14T09:12:36.143Z,-4.20
2022-12-14T09:13:58.231Z,-4.10
2022-12-14T09:15:20.319Z,-4.10
2022-12-14T09:16:42.547Z,-4.10
2022-12-14T09:18:05.269Z,-4.00
2022-12-14T09:19:27.861Z,-4.00
2022-12-14T09:20:49.978Z,-4.00
2022-12-14T09:22:13.363Z,-3.90
2022-12-14T09:23:36.610Z,-3.90
2022-12-14T09:24:58.668Z,-3.80
2022-12-14T09:26:22.818Z,-3.80
2022-12-14T09:27:44.898Z,-3.60
2022-12-14T09:29:07.018Z,-3.50
2022-12-14T09:30:29.104Z,-3.40
2022-12-14T09:31:51.169Z,-3.20
2022-12-14T09:33:13.254Z,-3.10
2022-12-14T09:34:35.349Z,-3.10
2022-12-14T09:36:21.353Z,-3.10
2022-12-14T09:37:43.451Z,-3.10
2022-12-14T09:39:05.512Z,-3.10
2022-12-14T09:40:31.324Z,-3.10
2022-12-14T09:42:21.039Z,-3.10
2022-12-14T09:43:48.000Z,-3.10
2022-12-14T09:45:17.285Z,-3.10
2022-12-14T09:46:52.042Z,-3.10
2022-12-14T09:48:20.709Z,-3.10
2022-12-14T09:49:56.940Z,-3.10
2022-12-14T09:51:21.948Z,-3.10
2022-12-14T09:52:56.742Z,-3.00
2022-12-14T09:54:26.682Z,-3.00
2022-12-14T09:55:51.468Z,-3.00
2022-12-14T09:57:30.387Z,-3.00
2022-12-14T09:58:57.934Z,-2.90
2022-12-14T10:00:20.388Z,-3.00
2022-12-14T10:02:28.980Z,-2.90
2022-12-14T10:04:01.555Z,-2.90
2022-12-14T10:05:53.698Z,-2.90
2022-12-14T10:07:34.264Z,-2.80
2022-12-14T10:09:05.638Z,-2.80
2022-12-14T10:11:01.244Z,-2.70
2022-12-14T10:13:05.582Z,-2.70
2022-12-14T10:14:56.892Z,-2.70
2022-12-14T10:16:51.761Z,-2.60
2022-12-14T10:18:58.777Z,-2.50
2022-12-14T10:20:23.458Z,-2.50
2022-12-14T10:21:47.714Z,-2.40
2022-12-14T10:23:18.176Z,-2.20
2022-12-14T10:24:52.415Z,-2.10
2022-12-14T10:26:18.810Z,-1.80
2022-12-14T10:28:09.652Z,-1.60
2022-12-14T10:29:39.696Z,-1.50
2022-12-14T10:31:02.593Z,-1.30
2022-12-14T10:32:39.481Z,-1.20
2022-12-14T10:34:15.594Z,-1.20
2022-12-14T10:35:55.062Z,-1.30
2022-12-14T10:37:25.475Z,-1.40
2022-12-14T10:38:53.507Z,-1.50
2022-12-14T10:40:36.947Z,-1.50
2022-12-14T10:42:04.468Z,-1.60
2022-12-14T10:43:54.454Z,-1.70
2022-12-14T10:45:40.326Z,-1.70
2022-12-14T10:47:09.981Z,-1.80
2022-12-14T10:48:45.242Z,-1.80
2022-12-14T10:50:16.956Z,-1.80
2022-12-14T10:52:05.484Z,-1.70
2022-12-14T10:53:41.763Z,-1.70
2022-12-14T10:55:29.710Z,-1.70
2022-12-14T10:56:51.972Z,-1.70
2022-12-14T10:58:14.095Z,-1.60
2022-12-14T10:59:44.573Z,-1.40
2022-12-14T11:01:15.649Z,-1.30
2022-12-14T11:02:42.549Z,-1.20
2022-12-14T11:04:07.137Z,-1.10
2022-12-14T11:05:41.613Z,-1.10
2022-12-14T11:07:15.851Z,-1.00
2022-12-14T11:08:49.028Z,-0.90
2022-12-14T11:10:21.343Z,-0.80
2022-12-14T11:11:45.060Z,-0.70
2022-12-14T11:13:17.197Z,-0.80
2022-12-14T11:15:01.308Z,-0.80
2022-12-14T11:16:36.584Z,-0.90
2022-12-14T11:18:24.063Z,-0.90
2022-12-14T11:20:08.659Z,-1.00
2022-12-14T11:21:37.408Z,-1.00
2022-12-14T11:23:09.078Z,-1.00
2022-12-14T11:24:31.390Z,-1.00
2022-12-14T11:26:03.757Z,-1.00
2022-12-14T11:27:25.870Z,-1.00
2022-12-14T11:28:53.232Z,-1.00
2022-12-14T11:30:16.706Z,-1.00
2022-12-14T11:31:44.125Z,-1.00
2022-12-14T11:33:06.368Z,-0.90
2022-12-14T11:34:39.032Z,-0.80
2022-12-14T11:36:01.310Z,-0.60
2022-12-14T11:37:31.512Z,-0.50
2022-12-14T11:39:15.252Z,-0.30
2022-12-14T11:40:38.087Z,-0.10
2022-12-14T11:42:02.392Z,-0.10
2022-12-14T11:43:32.204Z,-0.10
2022-12-14T11:44:54.889Z,0.00
2022-12-14T11:46:18.407Z,0.00
2022-12-14T11:47:40.723Z,-0.10
2022-12-14T11:49:02.776Z,-0.20
2022-12-14T11:50:25.932Z,-0.20
2022-12-14T11:52:06.122Z,-0.30
2022-12-14T11:53:28.230Z,-0.30
2022-12-14T11:54:54.245Z,-0.40
2022-12-14T11:56:18.053Z,-0.50
2022-12-14T11:58:00.084Z,-0.60
2022-12-14T11:59:24.808Z,-0.60
2022-12-14T12:00:52.491Z,-0.70
2022-12-14T12:02:28.240Z,-0.70
2022-12-14T12:03:53.645Z,-0.70
2022-12-14T12:05:18.845Z,-0.70
2022-12-14T12:06:42.198Z,-0.70
2022-12-14T12:08:07.320Z,-0.80
2022-12-14T12:09:31.387Z,-0.70
2022-12-14T12:11:01.945Z,-0.70
2022-12-14T12:12:24.270Z,-0.70
2022-12-14T12:13:50.908Z,-0.70
2022-12-14T12:15:19.706Z,-0.70
2022-12-14T12:16:44.304Z,-0.70
2022-12-14T12:18:29.545Z,-0.70
2022-12-14T12:19:52.495Z,-0.70
2022-12-14T12:21:30.040Z,-0.70
2022-12-14T12:22:57.877Z,-0.70
2022-12-14T12:24:36.761Z,-0.70
2022-12-14T12:26:17.652Z,-0.70
2022-12-14T12:27:40.036Z,-0.70
2022-12-14T12:29:26.542Z,-0.70
2022-12-14T12:30:53.133Z,-0.70
2022-12-14T12:32:21.295Z,-0.70
2022-12-14T12:34:15.062Z,-0.70
2022-12-14T12:35:42.035Z,-0.70
2022-12-14T12:37:28.453Z,-0.70
2022-12-14T12:39:12.697Z,-0.80
2022-12-14T12:40:41.838Z,-0.80
2022-12-14T12:42:31.346Z,-0.80
2022-12-14T12:43:54.412Z,-0.70
2022-12-14T12:45:36.411Z,-0.70
2022-12-14T12:47:25.564Z,-0.70
2022-12-14T12:49:00.940Z,-0.70
2022-12-14T12:50:26.774Z,-0.70
2022-12-14T12:52:02.725Z,-0.70
2022-12-14T12:53:28.338Z,-0.80
2022-12-14T12:55:02.066Z,-0.80
2022-12-14T12:56:48.209Z,-0.80
2022-12-14T12:58:30.015Z,-0.80
2022-12-14T12:59:55.678Z,-0.80
2022-12-14T13:01:32.025Z,-0.90
2022-12-14T13:03:18.967Z,-0.90
2022-12-14T13:04:44.646Z,-0.90
2022-12-14T13:06:21.840Z,-0.90
2022-12-14T13:07:52.836Z,-1.00
2022-12-14T13:09:32.947Z,-1.00
2022-12-14T13:11:25.203Z,-1.10
2022-12-14T13:12:48.302Z,-1.10
2022-12-14T13:15:00.996Z,-1.20
2022-12-14T13:16:31.771Z,-1.20
2022-12-14T13:18:49.304Z,-1.20
2022-12-14T13:20:31.770Z,-1.20
2022-12-14T13:21:56.304Z,-1.20
2022-12-14T13:25:34.483Z,-1.40
2022-12-14T13:27:17.763Z,-1.40
2022-12-14T13:28:48.980Z,-1.40
2022-12-14T13:30:24.531Z,-1.50
2022-12-14T13:32:26.280Z,-1.60
2022-12-14T13:34:14.847Z,-1.60
2022-12-14T13:35:44.455Z,-1.60
2022-12-14T13:37:47.870Z,-1.70
2022-12-14T13:39:45.383Z,-1.70
2022-12-14T13:41:47.110Z,-1.70
2022-12-14T13:43:27.120Z,-1.80
2022-12-14T13:45:04.272Z,-1.90
2022-12-14T13:46:29.367Z,-1.90
2022-12-14T13:47:55.275Z,-1.90
2022-12-14T13:49:21.812Z,-1.90
2022-12-14T13:50:57.491Z,-1.90
2022-12-14T13:52:41.425Z,-2.00
2022-12-14T13:54:18.419Z,-2.00
2022-12-14T13:56:01.298Z,-2.10
2022-12-14T13:57:25.251Z,-2.20
2022-12-14T13:58:49.486Z,-2.20
2022-12-14T14:00:50.305Z,-2.20
2022-12-14T14:02:27.789Z,-2.30
2022-12-14T14:03:52.414Z,-2.30
2022-12-14T14:05:18.794Z,-2.40
2022-12-14T14:06:41.814Z,-2.40
2022-12-14T14:08:33.285Z,-2.40
2022-12-14T14:10:01.861Z,-2.50
2022-12-14T14:11:41.950Z,-2.50
2022-12-14T14:13:27.010Z,-2.60
2022-12-14T14:15:01.093Z,-2.70
2022-12-14T14:16:32.701Z,-2.70
2022-12-14T14:18:01.652Z,-2.80
2022-12-14T14:19:28.599Z,-2.80
2022-12-14T14:21:12.165Z,-2.90
2022-12-14T14:22:34.234Z,-2.90
2022-12-14T14:24:16.814Z,-3.00
2022-12-14T14:25:42.909Z,-3.00
2022-12-14T14:27:08.435Z,-3.10
2022-12-14T14:28:30.880Z,-3.20
2022-12-14T14:29:54.562Z,-3.20
2022-12-14T14:31:16.739Z,-3.30
2022-12-14T14:32:42.054Z,-3.30
2022-12-14T14:34:05.335Z,-3.40
2022-12-14T14:35:45.495Z,-3.40
2022-12-14T14:37:20.529Z,-3.50
2022-12-14T14:38:42.960Z,-3.50
2022-12-14T14:40:23.490Z,-3.60
2022-12-14T14:41:52.564Z,-3.60
2022-12-14T14:43:23.727Z,-3.70
2022-12-14T14:44:55.462Z,-3.70
2022-12-14T14:46:22.740Z,-3.80
2022-12-14T14:47:55.937Z,-3.80
2022-12-14T14:49:22.978Z,-3.90
2022-12-14T14:50:48.441Z,-3.90
2022-12-14T14:52:47.430Z,-3.90
2022-12-14T14:55:06.578Z,-4.00
2022-12-14T14:56:21.093Z,-4.00
2022-12-14T14:57:57.135Z,-4.10
2022-12-14T14:59:19.320Z,-4.20
2022-12-14T15:01:12.121Z,-4.20
2022-12-14T15:02:41.429Z,-4.20
2022-12-14T15:04:23.415Z,-4.30
2022-12-14T15:05:46.431Z,-4.30
2022-12-14T15:07:15.800Z,-4.30
2022-12-14T15:08:40.708Z,-4.40
2022-12-14T15:10:24.615Z,-4.40
2022-12-14T15:11:56.733Z,-4.40
2022-12-14T15:13:29.823Z,-4.50
2022-12-14T15:14:56.370Z,-4.50
2022-12-14T15:16:24.231Z,-4.50
2022-12-14T15:17:46.833Z,-4.60
2022-12-14T15:19:25.018Z,-4.60
2022-12-14T15:20:56.851Z,-4.60
2022-12-14T15:22:25.093Z,-4.70
2022-12-14T15:23:51.443Z,-4.70
2022-12-14T15:25:23.215Z,-4.70
2022-12-14T15:26:45.474Z,-4.70
2022-12-14T15:28:08.157Z,-4.80
2022-12-14T15:29:31.595Z,-4.80
2022-12-14T15:30:55.121Z,-4.80
2022-12-14T15:32:20.795Z,-4.80
2022-12-14T15:33:47.778Z,-4.80
2022-12-14T15:35:18.069Z,-4.80
2022-12-14T15:36:42.533Z,-4.90
2022-12-14T15:38:06.807Z,-4.90
2022-12-14T15:39:38.237Z,-4.90
2022-12-14T15:41:15.088Z,-4.90
2022-12-14T15:42:55.742Z,-4.90
2022-12-14T15:44:22.689Z,-4.90
2022-12-14T15:45:48.550Z,-4.90
2022-12-14T15:47:31.207Z,-4.90
2022-12-14T15:49:03.606Z,-4.90
2022-12-14T15:50:29.805Z,-4.90
2022-12-14T15:51:52.277Z,-5.00
2022-12-14T15:53:21.894Z,-5.00
2022-12-14T15:54:44.894Z,-5.00
2022-12-14T15:56:25.612Z,-5.00
2022-12-14T15:57:47.690Z,-5.00
2022-12-14T15:59:30.735Z,-5.10
2022-12-14T16:00:55.162Z,-5.10
2022-12-14T16:02:33.004Z,-5.10
2022-12-14T16:03:59.284Z,-5.10
2022-12-14T16:05:22.415Z,-5.10
2022-12-14T16:06:53.412Z,-5.10
2022-12-14T16:08:16.275Z,-5.10
2022-12-14T16:09:53.170Z,-5.10
2022-12-14T16:11:33.187Z,-5.10
2022-12-14T16:13:01.628Z,-5.00
2022-12-14T16:14:35.185Z,-5.10
2022-12-14T16:15:59.952Z,-5.10
2022-12-14T16:17:32.574Z,-5.10
2022-12-14T16:19:08.630Z,-5.10
2022-12-14T16:20:38.309Z,-5.10
2022-12-14T16:22:10.048Z,-5.10
2022-12-14T16:23:37.945Z,-5.10
2022-12-14T16:25:16.779Z,-5.10
2022-12-14T16:26:39.138Z,-5.10
2022-12-14T16:28:25.743Z,-5.10
2022-12-14T16:30:18.541Z,-5.20
2022-12-14T16:31:40.940Z,-5.20
2022-12-14T16:33:20.617Z,-5.20
2022-12-14T16:34:48.017Z,-5.20
2022-12-14T16:36:24.249Z,-5.20
2022-12-14T16:37:49.003Z,-5.20
2022-12-14T16:39:20.991Z,-5.30
2022-12-14T16:40:54.195Z,-5.30
2022-12-14T16:42:24.929Z,-5.30
2022-12-14T16:43:58.982Z,-5.30
2022-12-14T16:45:37.580Z,-5.30
2022-12-14T16:47:28.596Z,-5.30
2022-12-14T16:49:29.356Z,-5.30
2022-12-14T16:50:58.110Z,-5.30
2022-12-14T16:52:33.251Z,-5.30
2022-12-14T16:53:58.510Z,-5.30
2022-12-14T16:55:26.256Z,-5.40
2022-12-14T16:56:52.775Z,-5.40
2022-12-14T16:58:17.807Z,-5.40
2022-12-14T16:59:41.961Z,-5.40
2022-12-14T17:01:06.693Z,-5.40
2022-12-14T17:02:34.185Z,-5.40
2022-12-14T17:04:05.151Z,-5.40
2022-12-14T17:05:40.806Z,-5.50
2022-12-14T17:07:03.907Z,-5.50
2022-12-14T17:08:26.339Z,-5.50
2022-12-14T17:09:48.456Z,-5.60
2022-12-14T17:11:12.790Z,-5.60
2022-12-14T17:12:36.412Z,-5.70
2022-12-14T17:13:58.470Z,-5.70
2022-12-14T17:15:23.064Z,-5.70
2022-12-14T17:16:52.978Z,-5.70
2022-12-14T17:18:15.146Z,-5.80
2022-12-14T17:19:39.538Z,-5.80
2022-12-14T17:21:02.080Z,-5.80
2022-12-14T17:22:30.087Z,-5.80
2022-12-14T17:23:52.797Z,-5.80
2022-12-14T17:25:15.163Z,-5.80
2022-12-14T17:26:38.967Z,-5.90
2022-12-14T17:28:01.523Z,-5.90
2022-12-14T17:29:29.248Z,-5.90
2022-12-14T17:30:56.214Z,-5.90
2022-12-14T17:32:19.925Z,-5.90
2022-12-14T17:33:43.952Z,-6.00
2022-12-14T17:35:09.043Z,-6.00
2022-12-14T17:36:32.197Z,-6.00
2022-12-14T17:37:55.262Z,-6.00
2022-12-14T17:39:18.636Z,-5.90
2022-12-14T17:40:42.565Z,-5.90
2022-12-14T17:42:06.414Z,-5.90
2022-12-14T17:43:31.480Z,-5.90
2022-12-14T17:45:00.654Z,-5.90
2022-12-14T17:46:23.651Z,-5.90
2022-12-14T17:47:45.832Z,-5.90
2022-12-14T17:49:12.316Z,-5.90
2022-12-14T17:50:34.834Z,-5.90
2022-12-14T17:51:57.010Z,-5.90
2022-12-14T17:53:26.325Z,-5.90
2022-12-14T17:54:48.817Z,-6.00
2022-12-14T17:56:12.067Z,-6.00
2022-12-14T17:57:34.317Z,-6.00
2022-12-14T17:58:56.468Z,-6.00
2022-12-14T18:00:40.551Z,-6.00
2022-12-14T18:02:03.386Z,-6.00
2022-12-14T18:03:26.777Z,-6.00
2022-12-14T18:04:50.628Z,-6.00
2022-12-14T18:06:17.697Z,-6.00
2022-12-14T18:07:39.917Z,-6.00
2022-12-14T18:09:02.890Z,-6.00
2022-12-14T18:10:26.026Z,-6.00
2022-12-14T18:12:21.047Z,-6.00
2022-12-14T18:13:35.062Z,-5.90
2022-12-14T18:14:57.373Z,-6.00
2022-12-14T18:16:21.444Z,-6.00
2022-12-14T18:17:44.800Z,-6.00
2022-12-14T18:19:11.947Z,-6.00
2022-12-14T18:20:36.958Z,-6.00
2022-12-14T18:22:01.481Z,-6.00
2022-12-14T18:23:25.388Z,-6.00
2022-12-14T18:24:49.136Z,-6.00
2022-12-14T18:26:12.909Z,-6.00
2022-12-14T18:27:36.308Z,-6.00
2022-12-14T18:28:58.474Z,-6.10
2022-12-14T18:30:21.039Z,-6.10
2022-12-14T18:31:43.908Z,-6.10
2022-12-14T18:33:16.672Z,-6.10
2022-12-14T18:34:40.010Z,-6.10
2022-12-14T18:36:02.172Z,-6.10
2022-12-14T18:37:28.406Z,-6.10
2022-12-14T18:38:55.909Z,-6.10
2022-12-14T18:40:21.287Z,-6.10
2022-12-14T18:41:43.604Z,-6.10
2022-12-14T18:43:06.093Z,-6.10
2022-12-14T18:44:28.280Z,-6.20
2022-12-14T18:45:52.784Z,-6.20
2022-12-14T18:47:40.539Z,-6.20
2022-12-14T18:48:57.189Z,-6.20
2022-12-14T18:50:27.212Z,-6.20
2022-12-14T18:51:49.519Z,-6.20
2022-12-14T18:53:17.088Z,-6.30
2022-12-14T18:54:40.285Z,-6.20
2022-12-14T18:56:03.763Z,-6.20
2022-12-14T18:57:27.006Z,-6.20
2022-12-14T18:58:49.529Z,-6.20
2022-12-14T19:00:14.914Z,-6.20
2022-12-14T19:01:39.616Z,-6.20
2022-12-14T19:03:04.234Z,-6.20
2022-12-14T19:04:26.588Z,-6.20
2022-12-14T19:05:49.046Z,-6.20
2022-12-14T19:07:11.244Z,-6.20
2022-12-14T19:08:33.480Z,-6.30
2022-12-14T19:09:56.261Z,-6.20
2022-12-14T19:11:32.489Z,-6.30
2022-12-14T19:12:55.478Z,-6.20